Sunday, October 22, 2017, 8:33 PM EDT
Back to Local

KELZ, Wellsville Municipal Airport

Location: Wellsville, NY, United States Lat: 42.1
Local Time: 8:33 PM EDT ( 0:33 GMT) Lon: -78
Time Zone: US/Eastern Elev: 2122 ft

Show me the last for .
Show Coded

Time T Td Feel RH Dir Speed Gust Alt SLP Vis Weather Sky Remarks
2017-10-22 19:56 65 49 - 56 180° 9 - 30.28 30.27 10 CLR 6-hr Min Temp (8pm): 64.9°F
6-hr Max Temp (8pm): 75.0°F
2017-10-22 18:56 66 48 - 52 160° 9 - 30.26 30.26 10 CLR None
2017-10-22 17:56 69 47 - 45 170° 9 17 30.26 30.25 10 CLR None
2017-10-22 16:56 71 46 75 40 160° 7 - 30.27 30.24 10 CLR None
2017-10-22 15:56 74 44 - 34 160° 9 - 30.27 30.25 10 CLR None
2017-10-22 14:56 74 45 - 35 180° 8 - 30.28 30.26 10 CLR None
2017-10-22 13:56 73 46 - 38 140° 8 - 30.31 30.29 10 CLR 6-hr Min Temp (2pm): 55.0°F
6-hr Max Temp (2pm): 73.9°F
2017-10-22 12:56 73 48 76 41 Variable 7 - 30.33 30.30 10 CLR None
2017-10-22 11:56 71 47 75 42 Variable 7 - 30.34 30.32 10 CLR None
2017-10-22 10:56 68 47 - 46 170° 7 - 30.35 30.33 10 CLR None
2017-10-22 09:56 62 44 - 51 170° 5 - 30.35 30.34 10 CLR None
2017-10-22 08:56 59 43 - 55 170° 8 - 30.36 30.35 10 CLR None
2017-10-22 07:56 55 41 - 59 180° 6 - 30.36 30.35 10 CLR 6-hr Min Temp (8am): 53.1°F
6-hr Max Temp (8am): 60.1°F
2017-10-22 06:56 54 40 - 58 130° 3 - 30.36 30.35 10 CLR None
2017-10-22 05:56 57 40 - 52 - Calm - 30.36 30.34 10 CLR None
2017-10-22 04:56 58 40 - 51 - Calm - 30.35 30.32 10 CLR None
2017-10-22 03:56 59 40 - 49 Variable 5 - 30.32 30.30 10 CLR None
2017-10-22 02:56 59 40 - 49 Variable 3 - 30.33 30.31 10 CLR None
2017-10-22 01:56 60 40 - 47 180° 7 - 30.33 30.30 10 CLR 6-hr Min Temp (2am): 60.1°F
6-hr Max Temp (2am): 64.0°F
2017-10-22 00:56 60 40 - 47 180° 7 - 30.32 30.30 10 CLR 24-hr Min Temp (1am): 45.0°F
24-hr Max Temp (1am): 73.9°F
2017-10-21 23:56 62 40 - 44 180° 8 - 30.34 30.31 10 CLR None
2017-10-21 22:56 62 38 - 40 190° 9 20 30.34 30.32 10 CLR None
2017-10-21 21:56 63 37 - 38 180° 7 - 30.35 30.33 10 CLR None
2017-10-21 20:56 63 37 - 38 160° 6 - 30.34 30.34 10 CLR None

Support USWX by starting your Amazon purchase here.